Time;durP1;ratioP1;P1;durP2;ratioP2;P2;SDS_P1;SDS_P2;PMS_P1;PMS_P2;Temp;Humidity;BMP_temperature;BMP_pressure;BME280_temperature;BME280_humidity;BME280_pressure;Samples;Min_cycle;Max_cycle;Signal;HPM_P1;HPM_P2
2021/10/24 00:01:08;;;;;;;8.07;6.20;;;11.80;59.20;;;;;;5114353;28;20194;-78
2021/10/24 00:03:33;;;;;;;9.43;5.43;;;11.80;60.50;;;;;;5113846;28;20174;-78
2021/10/24 00:06:00;;;;;;;8.53;5.70;;;11.70;61.60;;;;;;5096172;28;20171;-79
2021/10/24 00:08:25;;;;;;;8.90;5.47;;;11.60;64.80;;;;;;5095902;28;20194;-78
2021/10/24 00:10:51;;;;;;;8.63;6.30;;;11.60;66.80;;;;;;5113873;28;20623;-78
2021/10/24 00:13:17;;;;;;;7.40;5.50;;;11.60;67.50;;;;;;5095683;28;20253;-80
2021/10/24 00:15:43;;;;;;;8.10;5.87;;;11.60;69.20;;;;;;5114326;28;20190;-78
2021/10/24 00:18:08;;;;;;;9.60;6.50;;;11.50;70.30;;;;;;5094986;28;20271;-79
2021/10/24 00:20:34;;;;;;;8.87;5.30;;;11.50;69.90;;;;;;5114019;28;20230;-79
2021/10/24 00:23:01;;;;;;;7.77;5.67;;;11.50;68.40;;;;;;5113702;28;20167;-79
2021/10/24 00:25:27;;;;;;;7.20;5.47;;;11.50;68.60;;;;;;5113233;28;20769;-78
2021/10/24 00:27:53;;;;;;;7.07;5.40;;;11.50;67.90;;;;;;5113870;28;20238;-79
2021/10/24 00:30:19;;;;;;;8.37;6.10;;;11.40;68.70;;;;;;5095907;28;20181;-78
2021/10/24 00:32:44;;;;;;;8.10;6.27;;;11.50;69.90;;;;;;5095114;28;20179;-78
2021/10/24 00:35:10;;;;;;;7.03;5.70;;;11.50;69.50;;;;;;5114067;28;20172;-79
2021/10/24 00:37:36;;;;;;;7.10;5.33;;;11.50;66.30;;;;;;5114214;28;20186;-78
2021/10/24 00:40:03;;;;;;;10.83;6.00;;;11.60;65.00;;;;;;5114136;28;20175;-78
2021/10/24 00:42:30;;;;;;;6.83;5.83;;;11.60;61.50;;;;;;5113628;28;20167;-78
2021/10/24 00:44:55;;;;;;;8.43;5.40;;;11.60;60.40;;;;;;5095639;28;20170;-78
2021/10/24 00:47:21;;;;;;;8.60;5.77;;;11.60;58.20;;;;;;5113689;28;20177;-78
2021/10/24 00:49:53;;;;;;;10.03;6.20;;;11.70;57.60;;;;;;5096021;28;20711;-79
2021/10/24 00:52:19;;;;;;;9.10;5.77;;;11.70;55.90;;;;;;5112917;28;20175;-77
2021/10/24 00:54:46;;;;;;;6.60;4.97;;;11.60;55.80;;;;;;5113145;28;20171;-78
2021/10/24 00:57:12;;;;;;;8.37;5.53;;;11.30;60.10;;;;;;5113380;28;20243;-78
2021/10/24 00:59:38;;;;;;;8.20;5.80;;;11.20;65.20;;;;;;5113668;28;20210;-79
2021/10/24 01:02:04;;;;;;;7.77;4.87;;;11.30;63.10;;;;;;5113011;28;20159;-77
2021/10/24 01:04:31;;;;;;;6.23;5.03;;;11.30;62.00;;;;;;5095319;28;20175;-78
2021/10/24 01:07:02;;;;;;;7.10;5.00;;;11.20;63.90;;;;;;5114700;28;20182;-78
2021/10/24 01:09:32;;;;;;;9.53;5.07;;;11.10;67.00;;;;;;5114131;28;20187;-78
2021/10/24 01:11:59;;;;;;;9.60;4.47;;;11.00;69.10;;;;;;5113883;28;20177;-78
2021/10/24 01:14:24;;;;;;;5.93;4.50;;;10.90;67.90;;;;;;5120730;28;20200;-79
2021/10/24 01:16:51;;;;;;;6.27;4.80;;;10.90;68.10;;;;;;5129986;28;20167;-78
2021/10/24 01:19:18;;;;;;;7.27;4.80;;;10.80;70.50;;;;;;5127886;28;20170;-77
2021/10/24 01:21:45;;;;;;;7.90;4.70;;;10.90;70.60;;;;;;5095224;28;20167;-78
2021/10/24 01:24:11;;;;;;;10.10;5.20;;;11.00;68.50;;;;;;5114917;28;20638;-79
2021/10/24 01:26:38;;;;;;;6.83;4.97;;;11.10;67.40;;;;;;5116776;28;20194;-78
2021/10/24 01:29:07;;;;;;;8.40;4.80;;;11.20;66.20;;;;;;5118875;28;20155;-77
2021/10/24 01:31:33;;;;;;;7.23;5.10;;;11.10;67.00;;;;;;5119465;28;20170;-80
2021/10/24 01:33:59;;;;;;;6.93;5.10;;;11.00;66.10;;;;;;5122082;28;20231;-77
2021/10/24 01:36:26;;;;;;;7.97;5.07;;;11.10;67.00;;;;;;5124449;28;20174;-77
2021/10/24 01:38:52;;;;;;;10.60;5.27;;;11.20;65.90;;;;;;5117506;28;20673;-79
2021/10/24 01:41:23;;;;;;;7.27;5.27;;;11.20;64.10;;;;;;5095200;28;20171;-79
2021/10/24 01:43:49;;;;;;;6.53;4.53;;;11.10;65.60;;;;;;5102000;28;20183;-76
2021/10/24 01:46:17;;;;;;;6.93;5.43;;;11.30;66.00;;;;;;5131935;28;20691;-76
2021/10/24 01:48:44;;;;;;;7.90;5.13;;;11.20;64.50;;;;;;5102867;28;20183;-79
2021/10/24 01:51:11;;;;;;;5.80;5.00;;;11.10;66.30;;;;;;5117359;28;20556;-79
2021/10/24 01:53:39;;;;;;;8.00;5.20;;;11.00;69.30;;;;;;5117692;28;20166;-79
2021/10/24 01:56:07;;;;;;;7.57;5.10;;;11.10;68.50;;;;;;5136468;28;20175;-76
2021/10/24 01:58:33;;;;;;;6.70;4.23;;;11.30;65.50;;;;;;5104937;28;20651;-78
2021/10/24 02:00:58;;;;;;;11.10;4.90;;;11.00;65.40;;;;;;5121293;28;20178;-76
2021/10/24 02:03:24;;;;;;;6.10;4.60;;;11.00;66.80;;;;;;5134132;28;20175;-78
2021/10/24 02:05:50;;;;;;;7.97;4.87;;;10.90;67.20;;;;;;5125148;28;20194;-77
2021/10/24 02:08:17;;;;;;;7.80;4.60;;;10.90;68.10;;;;;;5098403;28;20246;-79
2021/10/24 02:10:43;;;;;;;7.60;4.80;;;10.90;65.80;;;;;;5133504;28;20515;-78
2021/10/24 02:13:10;;;;;;;5.90;4.23;;;10.80;67.10;;;;;;5137132;28;20175;-77
2021/10/24 02:15:36;;;;;;;6.97;4.37;;;10.60;71.80;;;;;;5130087;28;20170;-77
2021/10/24 02:18:07;;;;;;;6.87;3.83;;;10.60;71.10;;;;;;5138535;28;20190;-77
2021/10/24 02:20:36;;;;;;;5.17;3.83;;;10.50;71.10;;;;;;5119753;28;20174;-78
2021/10/24 02:23:02;;;;;;;5.20;3.63;;;10.50;70.80;;;;;;5116154;28;20178;-78
2021/10/24 02:25:29;;;;;;;7.40;4.07;;;10.50;70.90;;;;;;5116088;28;20171;-79
2021/10/24 02:27:54;;;;;;;4.83;4.00;;;10.70;68.50;;;;;;5116139;28;20171;-79
2021/10/24 02:30:20;;;;;;;9.03;3.93;;;10.60;66.90;;;;;;5115950;28;20638;-79
2021/10/24 02:32:47;;;;;;;6.50;3.53;;;10.70;64.40;;;;;;5097856;28;20616;-78
2021/10/24 02:35:13;;;;;;;5.93;3.90;;;10.70;62.30;;;;;;5097223;28;20167;-78
2021/10/24 02:37:40;;;;;;;5.17;3.87;;;10.60;64.20;;;;;;5097557;28;20211;-77
2021/10/24 02:40:07;;;;;;;8.50;3.80;;;10.60;64.10;;;;;;5115277;28;20528;-78
2021/10/24 02:42:34;;;;;;;5.40;4.17;;;10.50;64.50;;;;;;5115974;28;20182;-78
2021/10/24 02:44:59;;;;;;;6.97;4.57;;;10.70;67.00;;;;;;5115619;28;20171;-77
2021/10/24 02:47:25;;;;;;;7.53;4.30;;;10.60;64.10;;;;;;5115619;28;20166;-78
2021/10/24 02:49:51;;;;;;;6.13;4.00;;;10.60;63.50;;;;;;5115319;28;20171;-77
2021/10/24 02:52:17;;;;;;;6.93;4.07;;;10.50;62.50;;;;;;5097419;28;20178;-78
2021/10/24 02:54:43;;;;;;;6.23;4.27;;;10.50;63.40;;;;;;5114615;28;20205;-78
2021/10/24 02:57:09;;;;;;;6.37;4.53;;;10.40;65.20;;;;;;5114999;28;20295;-78
2021/10/24 02:59:35;;;;;;;5.20;4.00;;;10.40;65.20;;;;;;5097305;28;20225;-78
2021/10/24 03:02:01;;;;;;;7.00;4.87;;;10.60;64.00;;;;;;5115112;28;20213;-78
2021/10/24 03:04:30;;;;;;;7.43;4.40;;;10.40;65.70;;;;;;5115371;28;20170;-77
2021/10/24 03:06:56;;;;;;;7.80;4.50;;;10.30;65.40;;;;;;5115412;28;20702;-79
2021/10/24 03:09:22;;;;;;;6.47;4.10;;;10.20;65.90;;;;;;5097138;28;20187;-78
2021/10/24 03:11:49;;;;;;;6.07;4.00;;;10.20;68.70;;;;;;5115349;28;20210;-78
2021/10/24 03:14:16;;;;;;;7.30;4.37;;;10.20;69.00;;;;;;5115383;28;20174;-78
2021/10/24 03:16:43;;;;;;;7.57;3.97;;;10.10;70.60;;;;;;5096939;28;20163;-78
2021/10/24 03:19:08;;;;;;;5.63;4.03;;;10.10;71.50;;;;;;5114804;28;20250;-77
2021/10/24 03:21:34;;;;;;;5.00;3.87;;;10.10;72.70;;;;;;5114918;28;20194;-77
2021/10/24 03:24:01;;;;;;;6.63;4.33;;;10.10;72.20;;;;;;5114975;28;20265;-78
2021/10/24 03:26:28;;;;;;;6.63;4.30;;;10.10;70.70;;;;;;5115008;28;20159;-78
2021/10/24 03:28:54;;;;;;;6.43;4.10;;;10.20;68.70;;;;;;5114749;28;20185;-78
2021/10/24 03:31:20;;;;;;;5.57;4.10;;;10.20;67.50;;;;;;5115002;28;20167;-77
2021/10/24 03:33:46;;;;;;;8.43;4.47;;;10.20;67.80;;;;;;5114521;28;20174;-77
2021/10/24 03:36:13;;;;;;;5.17;4.17;;;10.10;67.30;;;;;;5096546;28;20312;-77
2021/10/24 03:38:39;;;;;;;5.00;3.70;;;10.00;70.10;;;;;;5114920;28;20309;-79
2021/10/24 03:41:05;;;;;;;5.77;4.00;;;9.90;72.10;;;;;;5098823;28;20186;-77
2021/10/24 03:43:31;;;;;;;9.43;4.60;;;9.80;73.10;;;;;;5114990;28;20171;-77
2021/10/24 03:45:57;;;;;;;6.60;3.93;;;9.90;73.60;;;;;;5114404;28;20242;-78
2021/10/24 03:48:23;;;;;;;6.93;4.60;;;9.90;72.70;;;;;;5114527;28;20320;-79
2021/10/24 03:50:49;;;;;;;7.33;4.63;;;10.00;71.50;;;;;;5096157;28;20179;-77
2021/10/24 03:53:16;;;;;;;4.43;3.63;;;10.00;67.10;;;;;;5114778;28;20174;-78
2021/10/24 03:55:42;;;;;;;8.20;4.13;;;10.00;67.00;;;;;;5114370;28;20175;-78
2021/10/24 03:58:09;;;;;;;5.70;4.10;;;10.10;63.10;;;;;;5114198;28;20215;-78
2021/10/24 04:00:34;;;;;;;7.20;4.20;;;10.00;65.70;;;;;;5114689;28;20178;-78
2021/10/24 04:03:05;;;;;;;6.03;3.90;;;10.10;62.90;;;;;;5114227;28;20530;-78
2021/10/24 04:05:31;;;;;;;7.00;4.00;;;10.00;61.50;;;;;;5114430;28;20209;-79
2021/10/24 04:07:57;;;;;;;6.90;4.30;;;10.00;62.60;;;;;;5113246;28;20178;-77
2021/10/24 04:10:24;;;;;;;7.80;3.93;;;10.20;59.60;;;;;;5114336;28;20179;-77
2021/10/24 04:12:50;;;;;;;5.90;3.90;;;10.20;54.10;;;;;;5095932;28;20189;-77
2021/10/24 04:15:17;;;;;;;5.87;3.83;;;10.20;53.80;;;;;;5114344;28;20254;-78
2021/10/24 04:17:43;;;;;;;7.40;3.67;;;9.90;56.10;;;;;;5114162;28;20222;-78
2021/10/24 04:20:13;;;;;;;5.83;4.17;;;9.90;58.90;;;;;;5114666;28;20247;-78
2021/10/24 04:22:39;;;;;;;6.97;4.13;;;9.90;57.50;;;;;;5114202;28;20514;-78
2021/10/24 04:25:08;;;;;;;7.40;4.13;;;9.80;57.90;;;;;;5113959;28;20186;-77
2021/10/24 04:27:34;;;;;;;5.57;3.90;;;9.90;55.80;;;;;;5114006;28;20163;-77
2021/10/24 04:30:00;;;;;;;6.13;3.67;;;9.90;53.10;;;;;;5113599;28;20175;-77
2021/10/24 04:32:26;;;;;;;7.53;3.90;;;9.90;53.70;;;;;;5114278;28;20167;-77
2021/10/24 04:34:52;;;;;;;6.20;4.07;;;9.90;55.00;;;;;;5113727;28;20170;-77
2021/10/24 04:37:18;;;;;;;6.93;3.73;;;9.70;53.60;;;;;;5095716;28;20568;-78
2021/10/24 04:39:44;;;;;;;5.20;3.90;;;9.70;57.30;;;;;;5113966;28;20171;-78
2021/10/24 04:42:10;;;;;;;6.17;3.77;;;9.70;53.30;;;;;;5095371;28;20179;-77
2021/10/24 04:44:36;;;;;;;6.10;3.87;;;9.60;56.60;;;;;;5113281;28;20171;-78
2021/10/24 04:47:02;;;;;;;7.37;3.53;;;9.60;57.50;;;;;;5113415;28;20563;-78
2021/10/24 04:49:28;;;;;;;4.83;2.90;;;9.60;57.50;;;;;;5095460;28;20291;-77
2021/10/24 04:51:54;;;;;;;8.10;3.87;;;9.60;55.80;;;;;;5095879;28;20208;-76
2021/10/24 04:54:21;;;;;;;5.07;3.70;;;9.50;55.80;;;;;;5096007;28;20186;-78
2021/10/24 04:56:47;;;;;;;5.57;3.43;;;9.70;57.30;;;;;;5113579;28;20627;-78
2021/10/24 04:59:12;;;;;;;7.63;4.10;;;9.80;56.50;;;;;;5113247;28;20187;-78
2021/10/24 05:01:38;;;;;;;7.63;3.57;;;9.90;52.70;;;;;;5095298;28;20163;-78
2021/10/24 05:04:04;;;;;;;5.87;3.53;;;9.70;50.60;;;;;;5101613;28;20175;-77
2021/10/24 05:06:30;;;;;;;4.43;3.00;;;9.60;52.00;;;;;;5131371;28;20171;-76
2021/10/24 05:08:56;;;;;;;5.67;3.67;;;9.70;50.90;;;;;;5114573;28;20719;-77
2021/10/24 05:11:21;;;;;;;6.20;3.50;;;9.60;51.30;;;;;;5120097;28;20163;-77
2021/10/24 05:13:47;;;;;;;5.87;3.73;;;9.70;50.30;;;;;;5117454;28;20171;-77
2021/10/24 05:16:13;;;;;;;5.13;3.07;;;9.80;47.10;;;;;;5095770;28;20178;-77
2021/10/24 05:18:39;;;;;;;6.40;3.30;;;9.70;43.00;;;;;;5118297;28;20238;-76
2021/10/24 05:21:06;;;;;;;6.07;3.00;;;9.60;46.60;;;;;;5115743;28;20170;-77
2021/10/24 05:23:32;;;;;;;6.10;3.57;;;9.60;49.00;;;;;;5115358;28;20174;-77
2021/10/24 05:25:58;;;;;;;7.03;3.70;;;9.70;46.70;;;;;;5129096;28;20197;-76
2021/10/24 05:28:24;;;;;;;6.40;3.57;;;9.80;44.00;;;;;;5105956;28;20167;-78
2021/10/24 05:30:50;;;;;;;5.33;3.70;;;10.00;39.80;;;;;;5125798;28;20179;-76
2021/10/24 05:33:16;;;;;;;5.40;3.30;;;10.00;33.00;;;;;;5118041;28;20179;-79
2021/10/24 05:35:42;;;;;;;7.03;4.37;;;10.20;25.70;;;;;;5117664;28;20166;-78
2021/10/24 05:38:07;;;;;;;8.07;3.83;;;10.20;24.70;;;;;;5117513;28;20616;-77
2021/10/24 05:40:33;;;;;;;5.10;3.57;;;10.10;26.50;;;;;;5117176;28;20171;-80
2021/10/24 05:43:00;;;;;;;5.93;4.00;;;10.00;28.70;;;;;;5117247;28;20642;-77
2021/10/24 05:45:25;;;;;;;6.20;3.60;;;10.10;28.20;;;;;;5116781;28;20627;-78
2021/10/24 05:47:51;;;;;;;6.47;3.43;;;9.90;32.70;;;;;;5098520;28;20171;-79
2021/10/24 05:50:16;;;;;;;6.37;3.73;;;9.90;33.60;;;;;;5117030;28;20511;-79
2021/10/24 05:52:42;;;;;;;5.23;3.27;;;9.90;33.50;;;;;;5116598;28;20171;-77
2021/10/24 05:55:08;;;;;;;6.57;3.50;;;9.80;32.30;;;;;;5116535;28;20620;-81
2021/10/24 05:57:34;;;;;;;5.80;3.57;;;9.90;36.10;;;;;;5116258;28;20191;-79
2021/10/24 06:00:00;;;;;;;5.03;3.40;;;9.90;31.00;;;;;;5116409;28;20178;-78
2021/10/24 06:02:25;;;;;;;6.23;3.93;;;9.90;28.80;;;;;;5116725;28;20167;-79
2021/10/24 06:04:51;;;;;;;8.17;3.47;;;10.00;28.20;;;;;;5116475;28;20177;-77
2021/10/24 06:07:17;;;;;;;5.87;3.80;;;9.90;30.20;;;;;;5098263;28;20167;-79
2021/10/24 06:10:01;;;;;;;4.63;3.30;;;9.90;31.30;;;;;;5098209;28;20194;-79
2021/10/24 06:15:10;;;;;;;9.13;3.57;;;9.90;31.20;;;;;;5116307;28;20167;-79
2021/10/24 06:17:36;;;;;;;9.73;3.67;;;9.80;29.50;;;;;;5116270;28;20555;-80
2021/10/24 06:20:08;;;;;;;5.57;3.70;;;9.70;32.70;;;;;;5116118;28;20627;-80
2021/10/24 06:22:38;;;;;;;7.37;4.30;;;9.60;32.60;;;;;;5098345;28;20198;-80
2021/10/24 06:25:08;;;;;;;8.00;4.17;;;9.60;34.50;;;;;;5116228;28;20194;-80
2021/10/24 06:27:38;;;;;;;6.60;3.73;;;9.70;33.90;;;;;;5116417;28;20163;-78
2021/10/24 06:30:06;;;;;;;5.57;3.70;;;9.60;34.80;;;;;;5098264;28;20635;-78
2021/10/24 06:32:31;;;;;;;7.07;4.30;;;9.50;37.90;;;;;;5129398;28;20192;-79
2021/10/24 06:35:00;;;;;;;6.93;3.60;;;9.30;42.50;;;;;;5126489;28;20163;-79
2021/10/24 06:37:54;;;;;;;7.97;4.40;;;9.30;45.90;;;;;;5104607;28;20572;-79
2021/10/24 06:40:28;;;;;;;5.33;3.77;;;9.10;49.00;;;;;;5119614;28;20178;-79
2021/10/24 06:42:54;;;;;;;5.93;3.30;;;9.30;52.50;;;;;;5117205;28;20162;-79
2021/10/24 06:45:20;;;;;;;7.67;3.97;;;9.30;53.30;;;;;;5116363;28;20163;-80
2021/10/24 06:47:49;;;;;;;5.90;3.40;;;9.10;54.80;;;;;;5097647;28;20170;-79
2021/10/24 06:50:16;;;;;;;6.97;3.80;;;9.10;54.80;;;;;;5116463;28;20173;-80
2021/10/24 06:52:41;;;;;;;6.63;3.83;;;8.90;55.50;;;;;;5097444;28;20603;-80
2021/10/24 06:55:10;;;;;;;6.77;3.93;;;9.00;55.70;;;;;;5096769;28;20224;-79
2021/10/24 06:57:52;;;;;;;5.37;3.57;;;9.10;55.80;;;;;;5097314;28;20226;-78
2021/10/24 07:00:28;;;;;;;4.80;3.80;;;9.20;55.60;;;;;;5096880;28;20273;-80
2021/10/24 07:02:54;;;;;;;8.10;4.33;;;9.10;55.90;;;;;;5115452;28;20574;-80
2021/10/24 07:05:30;;;;;;;7.10;3.70;;;9.00;57.70;;;;;;5098240;28;20166;-81
2021/10/24 07:08:10;;;;;;;7.23;3.67;;;8.90;58.80;;;;;;5097733;28;20171;-82
2021/10/24 07:10:46;;;;;;;7.53;3.70;;;9.00;61.70;;;;;;5096262;28;20546;-81
2021/10/24 07:13:12;;;;;;;8.87;3.83;;;9.00;60.00;;;;;;5096926;28;20174;-80
2021/10/24 07:15:38;;;;;;;5.53;3.60;;;9.10;60.10;;;;;;5096661;28;20171;-79
2021/10/24 07:18:04;;;;;;;6.10;3.70;;;9.10;58.00;;;;;;5115103;28;20609;-79
2021/10/24 07:20:31;;;;;;;7.50;3.77;;;9.10;58.10;;;;;;5096700;28;20209;-79
2021/10/24 07:22:56;;;;;;;7.27;3.97;;;9.20;57.50;;;;;;5115044;28;20175;-80
2021/10/24 07:25:25;;;;;;;5.13;3.80;;;9.20;55.40;;;;;;5096501;28;20170;-80
2021/10/24 07:27:51;;;;;;;7.10;3.83;;;9.20;55.80;;;;;;5114906;28;20205;-80
2021/10/24 07:30:17;;;;;;;6.70;3.73;;;9.30;54.70;;;;;;5094369;27;20197;-80
2021/10/24 07:32:43;;;;;;;7.13;5.20;;;9.50;53.80;;;;;;5109420;27;20567;-78
2021/10/24 07:35:09;;;;;;;11.30;6.77;;;9.30;52.20;;;;;;5128080;27;20248;-79
2021/10/24 07:37:35;;;;;;;5.53;3.83;;;9.40;51.30;;;;;;5134144;27;20672;-79
2021/10/24 07:40:01;;;;;;;8.57;3.87;;;9.40;50.70;;;;;;5134441;27;20170;-79
2021/10/24 07:42:33;;;;;;;9.37;4.30;;;9.50;50.10;;;;;;5135006;27;20629;-79
2021/10/24 07:44:59;;;;;;;7.00;3.50;;;9.50;48.60;;;;;;5116069;27;20186;-80
2021/10/24 07:47:25;;;;;;;7.70;3.47;;;9.50;46.00;;;;;;5134470;27;20272;-79
2021/10/24 07:49:51;;;;;;;6.00;3.57;;;9.50;47.80;;;;;;5116452;27;20201;-80
2021/10/24 07:52:18;;;;;;;6.03;3.40;;;9.50;48.40;;;;;;5130439;27;20252;-79
2021/10/24 07:54:43;;;;;;;8.87;4.73;;;9.50;49.20;;;;;;5113470;28;20631;-77
2021/10/24 07:57:10;;;;;;;6.27;3.90;;;9.60;49.90;;;;;;5113398;28;20185;-79
2021/10/24 07:59:36;;;;;;;6.50;3.93;;;9.60;48.60;;;;;;5113449;28;20190;-78
2021/10/24 08:02:02;;;;;;;5.83;3.90;;;9.70;47.10;;;;;;5125456;28;20166;-78
2021/10/24 08:04:29;;;;;;;9.60;4.07;;;9.80;45.70;;;;;;5112653;28;20220;-79
2021/10/24 08:06:55;;;;;;;8.27;3.80;;;9.80;42.50;;;;;;5114037;28;20577;-78
2021/10/24 08:09:20;;;;;;;8.83;3.80;;;9.70;42.60;;;;;;5112321;28;20278;-79
2021/10/24 08:11:48;;;;;;;6.27;3.70;;;9.70;44.20;;;;;;5114188;28;20174;-78
2021/10/24 08:14:13;;;;;;;6.80;3.83;;;9.80;43.50;;;;;;5123504;27;20171;-79
2021/10/24 08:16:40;;;;;;;6.47;3.83;;;9.90;42.20;;;;;;5113105;28;20174;-78
2021/10/24 08:19:08;;;;;;;5.60;4.10;;;10.00;40.00;;;;;;5113038;28;20671;-78
2021/10/24 08:21:35;;;;;;;6.57;3.83;;;10.00;36.80;;;;;;5113336;28;20175;-79
2021/10/24 08:24:02;;;;;;;6.47;3.77;;;10.10;36.40;;;;;;5097967;28;20182;-80
2021/10/24 08:26:28;;;;;;;7.67;3.93;;;10.20;33.00;;;;;;5119963;28;20520;-80
2021/10/24 08:28:54;;;;;;;8.03;4.20;;;10.30;30.00;;;;;;5092910;28;20236;-79
2021/10/24 08:31:25;;;;;;;6.77;3.97;;;10.60;25.10;;;;;;5113106;28;20170;-78
2021/10/24 08:33:53;;;;;;;6.60;3.53;;;10.50;24.70;;;;;;5094613;28;20175;-78
2021/10/24 08:36:19;;;;;;;11.43;3.80;;;10.50;24.80;;;;;;5112738;28;20185;-78
2021/10/24 08:38:45;;;;;;;7.23;4.10;;;10.60;22.70;;;;;;5112940;28;20226;-79
2021/10/24 08:41:13;;;;;;;6.40;3.90;;;10.60;22.70;;;;;;5112991;28;20171;-79
2021/10/24 08:43:40;;;;;;;9.00;4.70;;;10.60;24.10;;;;;;5113854;28;20181;-78
2021/10/24 08:46:06;;;;;;;8.90;4.73;;;10.60;24.50;;;;;;5099204;28;20362;-78
2021/10/24 08:48:35;;;;;;;8.70;4.27;;;10.70;24.50;;;;;;5117478;28;20160;-80
2021/10/24 08:51:02;;;;;;;7.50;5.30;;;10.70;24.70;;;;;;5113384;28;20163;-79
2021/10/24 08:53:29;;;;;;;7.43;4.63;;;10.70;23.80;;;;;;5094396;28;20186;-81
2021/10/24 08:55:58;;;;;;;7.67;4.70;;;10.90;23.60;;;;;;5112278;28;20175;-80
2021/10/24 08:58:24;;;;;;;8.03;5.03;;;11.00;19.30;;;;;;5112383;28;20226;-79
2021/10/24 09:00:52;;;;;;;7.83;4.40;;;11.10;17.90;;;;;;5119018;28;20174;-81
2021/10/24 09:03:18;;;;;;;8.20;4.83;;;11.20;16.10;;;;;;5106534;28;20405;-80
2021/10/24 09:05:45;;;;;;;8.13;4.70;;;11.40;12.20;;;;;;5102490;28;20634;-79
2021/10/24 09:08:16;;;;;;;8.57;4.43;;;11.50;5.90;;;;;;5118410;28;20240;-79
2021/10/24 09:10:45;;;;;;;7.60;4.73;;;11.60;6.40;;;;;;5110979;28;20250;-79
2021/10/24 09:13:14;;;;;;;8.37;5.00;;;11.70;5.00;;;;;;5079722;28;20702;-79
2021/10/24 09:15:59;;;;;;;6.90;4.20;;;11.70;1.00;;;;;;5113934;28;20195;-78
2021/10/24 09:18:39;;;;;;;6.13;4.40;;;11.80;1.00;;;;;;5093059;28;20218;-80
2021/10/24 09:21:14;;;;;;;6.93;4.47;;;11.80;1.00;;;;;;5096348;28;20181;-79
2021/10/24 09:23:44;;;;;;;9.37;5.30;;;11.90;1.00;;;;;;5113609;28;20179;-79
2021/10/24 09:26:21;;;;;;;8.93;5.70;;;11.90;1.00;;;;;;5094455;28;20248;-81
2021/10/24 09:29:07;;;;;;;7.63;4.43;;;12.00;1.00;;;;;;5112914;28;20182;-80
2021/10/24 09:31:37;;;;;;;7.13;4.47;;;12.20;1.00;;;;;;5115405;28;20185;-81
2021/10/24 09:34:20;;;;;;;9.17;4.77;;;12.30;1.00;;;;;;5095878;28;20692;-81
2021/10/24 09:36:53;;;;;;;7.40;4.43;;;12.40;1.00;;;;;;5095474;28;20178;-79
2021/10/24 09:39:21;;;;;;;7.60;4.23;;;12.30;1.00;;;;;;5119765;28;20211;-79
2021/10/24 09:41:48;;;;;;;8.67;4.77;;;12.40;1.00;;;;;;5136672;28;20163;-79
2021/10/24 09:44:17;;;;;;;8.63;4.50;;;12.40;1.00;;;;;;5104984;28;20545;-79
2021/10/24 09:47:08;;;;;;;7.80;4.03;;;12.60;1.00;;;;;;5100406;28;20175;-80
2021/10/24 09:49:41;;;;;;;7.73;4.27;;;12.50;1.00;;;;;;5108248;28;20195;-78
2021/10/24 09:52:26;;;;;;;6.33;4.30;;;12.40;1.00;;;;;;5093037;28;20175;-83
2021/10/24 09:54:52;;;;;;;6.43;4.17;;;12.50;1.00;;;;;;5074238;28;20176;-80
2021/10/24 09:57:19;;;;;;;8.67;3.90;;;12.50;1.00;;;;;;5092144;28;20213;-81
2021/10/24 09:59:47;;;;;;;7.27;3.80;;;12.50;1.00;;;;;;5105066;28;20238;-79
2021/10/24 10:02:13;;;;;;;7.87;4.57;;;12.60;1.00;;;;;;5122372;28;20246;-79
2021/10/24 10:04:39;;;;;;;7.97;4.77;;;12.50;1.00;;;;;;5108796;28;20197;-80
2021/10/24 10:07:04;;;;;;;7.90;4.27;;;12.60;1.00;;;;;;5113004;28;20179;-79
2021/10/24 10:09:31;;;;;;;5.30;3.80;;;12.70;1.00;;;;;;5112045;28;20196;-78
2021/10/24 10:12:05;;;;;;;7.43;4.07;;;12.70;1.00;;;;;;5132158;28;20152;-80
2021/10/24 10:14:35;;;;;;;6.53;4.33;;;12.80;1.00;;;;;;5102096;28;20171;-79
2021/10/24 10:17:23;;;;;;;13.07;5.03;;;12.90;1.00;;;;;;5118331;28;20179;-81
2021/10/24 10:19:49;;;;;;;5.77;4.03;;;12.90;1.00;;;;;;5098452;28;20700;-81
2021/10/24 10:22:20;;;;;;;7.20;4.33;;;12.90;1.00;;;;;;5116208;28;20187;-80
2021/10/24 10:24:56;;;;;;;7.43;4.50;;;12.90;1.00;;;;;;5116654;28;20187;-79
2021/10/24 10:27:32;;;;;;;6.73;4.07;;;13.10;1.00;;;;;;5099894;28;20645;-81
2021/10/24 10:30:05;;;;;;;8.13;4.47;;;13.20;1.00;;;;;;5098816;28;20701;-80
2021/10/24 10:32:39;;;;;;;9.63;4.40;;;13.20;1.00;;;;;;5088114;28;20182;-80
2021/10/24 10:35:15;;;;;;;7.50;4.43;;;13.30;1.00;;;;;;5097807;28;20613;-83
2021/10/24 10:37:51;;;;;;;8.37;4.90;;;13.40;1.00;;;;;;5097650;28;20226;-81
2021/10/24 10:40:33;;;;;;;8.03;4.87;;;13.40;1.00;;;;;;5097860;28;20183;-82
2021/10/24 10:43:19;;;;;;;8.00;4.60;;;13.60;1.00;;;;;;5115416;28;20179;-80
2021/10/24 10:45:56;;;;;;;6.67;3.97;;;13.80;1.00;;;;;;5117215;28;20161;-80
2021/10/24 10:48:29;;;;;;;6.87;4.10;;;14.00;1.00;;;;;;5098582;28;20176;-80
2021/10/24 10:51:24;;;;;;;7.23;4.40;;;13.90;1.00;;;;;;5082245;28;20181;-79
2021/10/24 10:53:59;;;;;;;10.77;4.30;;;13.90;1.00;;;;;;5094914;28;20199;-81
2021/10/24 10:56:48;;;;;;;6.80;3.90;;;13.90;1.00;;;;;;5088249;28;20225;-81
2021/10/24 10:59:15;;;;;;;7.70;4.20;;;14.00;1.00;;;;;;5109880;27;20576;-80
2021/10/24 11:01:41;;;;;;;9.20;4.30;;;14.00;1.00;;;;;;5107670;28;20232;-79
2021/10/24 11:04:07;;;;;;;9.57;4.00;;;14.10;1.00;;;;;;5093178;28;20194;-80
2021/10/24 11:06:36;;;;;;;8.27;4.00;;;14.10;1.00;;;;;;5113100;28;20176;-79
2021/10/24 11:09:11;;;;;;;7.13;3.43;;;14.00;1.00;;;;;;5094581;28;20214;-79
2021/10/24 11:11:40;;;;;;;7.77;3.67;;;14.10;1.00;;;;;;5086940;28;20188;-81
2021/10/24 11:14:15;;;;;;;7.13;4.27;;;14.30;1.00;;;;;;5095434;28;20168;-80
2021/10/24 11:16:57;;;;;;;7.70;4.30;;;14.60;1.00;;;;;;5099203;28;20176;-82
2021/10/24 11:19:46;;;;;;;8.40;4.00;;;14.70;1.00;;;;;;5096414;28;20684;-81
2021/10/24 11:22:15;;;;;;;8.33;6.70;;;14.70;1.00;;;;;;5114825;28;20183;-82
2021/10/24 11:24:40;;;;;;;7.83;4.53;;;14.50;1.00;;;;;;5115171;28;20219;-82
2021/10/24 11:27:11;;;;;;;7.07;4.43;;;14.70;1.00;;;;;;5094031;28;20208;-79
2021/10/24 11:29:48;;;;;;;6.37;4.00;;;14.80;1.00;;;;;;5110969;28;20180;-80
2021/10/24 11:32:33;;;;;;;6.13;3.63;;;14.70;1.00;;;;;;5115942;27;20177;-78
2021/10/24 11:35:19;;;;;;;7.47;4.07;;;14.60;1.00;;;;;;5106548;28;20204;-81
2021/10/24 11:37:54;;;;;;;6.97;3.90;;;14.70;1.00;;;;;;5115546;27;20232;-82
2021/10/24 11:40:24;;;;;;;5.77;3.30;;;14.70;1.00;;;;;;5114196;27;20172;-81
2021/10/24 11:43:06;;;;;;;5.60;2.50;;;14.60;1.00;;;;;;5113696;28;20174;-80
2021/10/24 11:45:44;;;;;;;5.90;3.07;;;14.70;1.00;;;;;;5096288;28;20184;-80
2021/10/24 11:48:15;;;;;;;5.50;3.37;;;14.60;1.00;;;;;;5114977;28;20205;-80
2021/10/24 11:50:53;;;;;;;6.33;3.03;;;14.60;1.00;;;;;;5115418;28;20170;-82
2021/10/24 11:53:37;;;;;;;7.40;3.40;;;14.60;1.00;;;;;;5115009;28;20184;-82
2021/10/24 11:56:04;;;;;;;8.03;3.70;;;14.90;1.00;;;;;;5114619;28;20180;-82
2021/10/24 12:01:12;;;;;;;6.73;3.50;;;15.10;1.00;;;;;;5114294;28;20169;-83
2021/10/24 12:03:40;;;;;;;10.20;4.20;;;15.30;1.00;;;;;;5113841;28;20238;-80
2021/10/24 12:06:07;;;;;;;5.30;3.63;;;15.30;1.00;;;;;;5114372;28;20167;-79
2021/10/24 12:08:43;;;;;;;6.83;4.60;;;15.30;1.00;;;;;;5113925;28;20183;-82
2021/10/24 12:11:13;;;;;;;6.27;4.33;;;15.40;1.00;;;;;;5114138;28;20166;-80
2021/10/24 12:13:40;;;;;;;7.50;5.63;;;15.40;1.00;;;;;;5114479;28;20246;-80
2021/10/24 12:16:24;;;;;;;5.13;3.73;;;15.40;1.00;;;;;;5095995;28;20174;-81
2021/10/24 12:19:06;;;;;;;20.10;15.37;;;15.20;1.00;;;;;;5114725;28;20205;-81
2021/10/24 12:21:31;;;;;;;9.23;6.80;;;15.30;1.00;;;;;;5114617;28;20221;-82
2021/10/24 12:24:20;;;;;;;7.33;4.47;;;15.50;1.00;;;;;;5100424;28;20186;-82
2021/10/24 12:26:46;;;;;;;6.90;3.57;;;15.50;1.00;;;;;;5115399;28;20171;-81
2021/10/24 12:29:21;;;;;;;7.07;4.30;;;15.50;1.00;;;;;;5094373;28;20185;-81
2021/10/24 12:32:08;;;;;;;8.20;5.10;;;15.50;1.00;;;;;;5114645;28;20167;-82
2021/10/24 12:34:35;;;;;;;7.97;5.60;;;15.50;1.00;;;;;;5095524;28;20171;-82
2021/10/24 12:37:00;;;;;;;8.47;5.50;;;15.60;1.00;;;;;;5126011;27;20271;-81
2021/10/24 12:39:27;;;;;;;8.17;4.47;;;15.50;1.00;;;;;;5134058;27;20618;-79
2021/10/24 12:41:53;;;;;;;5.80;3.70;;;15.80;1.00;;;;;;5116835;28;20236;-81
2021/10/24 12:44:35;;;;;;;9.33;6.13;;;16.00;1.00;;;;;;5117029;27;20638;-80
2021/10/24 12:47:15;;;;;;;6.77;4.07;;;16.10;1.00;;;;;;5108142;28;20196;-82
2021/10/24 12:49:56;;;;;;;7.87;4.60;;;16.20;1.00;;;;;;5126267;28;20181;-80
2021/10/24 12:52:22;;;;;;;11.37;8.10;;;16.10;1.00;;;;;;5115329;28;20151;-80
2021/10/24 12:54:59;;;;;;;7.77;4.90;;;16.10;1.00;;;;;;5098729;28;20231;-80
2021/10/24 12:57:25;;;;;;;8.40;5.23;;;16.30;1.00;;;;;;5098151;28;20705;-79
2021/10/24 12:59:51;;;;;;;12.00;9.60;;;16.20;1.00;;;;;;5117632;28;20213;-82
2021/10/24 13:02:19;;;;;;;7.70;3.73;;;16.20;1.00;;;;;;5104660;28;20261;-80
2021/10/24 13:04:46;;;;;;;5.53;3.50;;;16.10;1.00;;;;;;5110119;28;20253;-83
2021/10/24 13:07:12;;;;;;;5.60;3.90;;;15.70;1.00;;;;;;5108155;28;20171;-81